createdAt,value
2023-02-14T00:00:29.715Z,64.83
2023-02-14T00:02:57.040Z,64.99
2023-02-14T00:05:23.802Z,65.09
2023-02-14T00:07:50.495Z,65.53
2023-02-14T00:10:18.220Z,65.99
2023-02-14T00:12:44.844Z,66.73
2023-02-14T00:15:23.200Z,67.11
2023-02-14T00:17:55.460Z,66.45
2023-02-14T00:20:23.014Z,67.74
2023-02-14T00:22:49.733Z,68.96
2023-02-14T00:25:16.931Z,68.98
2023-02-14T00:27:43.892Z,68.88
2023-02-14T00:30:12.809Z,68.81
2023-02-14T00:32:41.057Z,69.13
2023-02-14T00:35:09.435Z,68.91
2023-02-14T00:37:36.304Z,68.85
2023-02-14T00:40:03.598Z,69.07
2023-02-14T00:42:31.038Z,68.40
2023-02-14T00:44:57.578Z,69.19
2023-02-14T00:47:24.434Z,68.64
2023-02-14T00:49:52.013Z,68.38
2023-02-14T00:52:18.640Z,67.96
2023-02-14T00:54:45.354Z,67.78
2023-02-14T00:57:13.959Z,68.13
2023-02-14T00:59:40.578Z,68.75
2023-02-14T01:02:07.230Z,69.21
2023-02-14T01:04:34.463Z,69.62
2023-02-14T01:07:00.998Z,69.35
2023-02-14T01:09:27.674Z,68.49
2023-02-14T01:11:54.564Z,67.92
2023-02-14T01:14:21.106Z,68.01
2023-02-14T01:16:49.548Z,67.94
2023-02-14T01:19:16.670Z,68.26
2023-02-14T01:21:43.772Z,67.79
2023-02-14T01:24:11.850Z,68.04
2023-02-14T01:26:39.369Z,67.74
2023-02-14T01:29:06.475Z,66.57
2023-02-14T01:31:34.449Z,64.62
2023-02-14T01:34:01.068Z,63.55
2023-02-14T01:36:39.312Z,63.48
2023-02-14T01:39:08.713Z,63.35
2023-02-14T01:41:37.180Z,62.71
2023-02-14T01:44:05.180Z,62.50
2023-02-14T01:46:34.489Z,62.11
2023-02-14T01:49:07.457Z,61.92
2023-02-14T01:51:38.273Z,62.47
2023-02-14T01:54:08.426Z,62.09
2023-02-14T01:56:39.627Z,62.16
2023-02-14T01:59:08.815Z,62.10
2023-02-14T02:01:35.496Z,62.17
2023-02-14T02:04:10.070Z,62.56
2023-02-14T02:06:44.667Z,62.79
2023-02-14T02:09:18.133Z,62.24
2023-02-14T02:11:44.896Z,61.55
2023-02-14T02:14:20.837Z,62.32
2023-02-14T02:17:15.710Z,62.98
2023-02-14T02:20:09.847Z,62.48
2023-02-14T02:22:51.711Z,61.25
2023-02-14T02:25:37.674Z,62.65
2023-02-14T02:28:15.309Z,61.48
2023-02-14T02:31:06.912Z,61.16
2023-02-14T02:34:18.613Z,62.08
2023-02-14T02:37:19.557Z,62.48
2023-02-14T02:40:06.383Z,61.99
2023-02-14T02:42:49.711Z,62.29
2023-02-14T02:46:06.325Z,61.20
2023-02-14T02:48:43.643Z,61.31
2023-02-14T02:51:36.423Z,61.04
2023-02-14T02:54:09.910Z,60.52
2023-02-14T02:56:47.181Z,61.22
2023-02-14T02:59:20.518Z,60.90
2023-02-14T03:02:12.575Z,60.62
2023-02-14T03:04:53.230Z,61.07
2023-02-14T03:07:34.969Z,62.27
2023-02-14T03:10:06.683Z,62.12
2023-02-14T03:12:33.240Z,60.97
2023-02-14T03:15:18.687Z,61.11
2023-02-14T03:18:03.482Z,60.63
2023-02-14T03:20:54.986Z,60.80
2023-02-14T03:23:27.680Z,60.83
2023-02-14T03:26:22.340Z,61.38
2023-02-14T03:29:01.298Z,61.52
2023-02-14T03:31:38.026Z,60.71
2023-02-14T03:34:13.088Z,60.43
2023-02-14T03:36:48.073Z,60.63
2023-02-14T03:39:33.495Z,60.47
2023-02-14T03:42:06.900Z,61.06
2023-02-14T03:44:36.420Z,61.26
2023-02-14T03:47:08.615Z,61.07
2023-02-14T03:49:40.601Z,61.71
2023-02-14T03:52:09.560Z,60.63
2023-02-14T03:54:36.798Z,60.61
2023-02-14T03:57:21.834Z,60.70
2023-02-14T03:59:48.717Z,60.81
2023-02-14T04:02:35.227Z,60.61
2023-02-14T04:05:07.398Z,60.77
2023-02-14T04:07:45.064Z,60.17
2023-02-14T04:10:11.670Z,60.81
2023-02-14T04:12:38.420Z,60.47
2023-02-14T04:15:05.806Z,60.85
2023-02-14T04:17:51.095Z,60.71
2023-02-14T04:20:17.688Z,60.84
2023-02-14T04:22:46.322Z,61.24
2023-02-14T04:25:13.585Z,61.34
2023-02-14T04:27:40.260Z,61.26
2023-02-14T04:30:07.903Z,61.80
2023-02-14T04:32:34.516Z,61.28
2023-02-14T04:35:01.050Z,60.78
2023-02-14T04:37:27.619Z,61.23
2023-02-14T04:39:54.159Z,60.84
2023-02-14T04:42:20.724Z,60.12
2023-02-14T04:44:47.348Z,60.39
2023-02-14T04:47:14.089Z,60.21
2023-02-14T04:49:40.629Z,60.75
2023-02-14T04:52:07.508Z,60.96
2023-02-14T04:54:34.132Z,60.48
2023-02-14T04:57:00.838Z,60.42
2023-02-14T04:59:27.432Z,60.55
2023-02-14T05:01:54.140Z,59.61
2023-02-14T05:04:20.743Z,60.69
2023-02-14T05:06:47.340Z,61.05
2023-02-14T05:09:13.906Z,60.74
2023-02-14T05:11:40.481Z,60.68
2023-02-14T05:14:07.341Z,59.88
2023-02-14T05:16:33.979Z,60.20
2023-02-14T05:19:00.887Z,59.88
2023-02-14T05:21:28.519Z,60.03
2023-02-14T05:23:55.112Z,60.76
2023-02-14T05:26:21.716Z,62.12
2023-02-14T05:28:48.253Z,63.19
2023-02-14T05:31:14.873Z,63.87
2023-02-14T05:33:41.551Z,62.13
2023-02-14T05:36:08.168Z,60.86
2023-02-14T05:38:34.967Z,60.98
2023-02-14T05:41:02.061Z,60.66
2023-02-14T05:43:30.184Z,59.98
2023-02-14T05:45:57.571Z,61.37
2023-02-14T05:48:24.426Z,61.27
2023-02-14T05:50:50.995Z,60.23
2023-02-14T05:53:17.797Z,60.40
2023-02-14T05:55:44.363Z,59.95
2023-02-14T05:58:12.536Z,60.16
2023-02-14T06:00:41.331Z,60.02
2023-02-14T06:03:08.599Z,60.18
2023-02-14T06:05:35.164Z,60.39
2023-02-14T06:08:01.715Z,59.96
2023-02-14T06:10:28.812Z,59.88
2023-02-14T06:12:55.686Z,60.14
2023-02-14T06:15:22.742Z,59.94
2023-02-14T06:17:56.678Z,60.60
2023-02-14T06:20:24.794Z,61.19
2023-02-14T06:22:52.075Z,60.90
2023-02-14T06:25:19.175Z,60.33
2023-02-14T06:27:48.249Z,60.39
2023-02-14T06:30:17.093Z,60.48
2023-02-14T06:32:43.721Z,61.10
2023-02-14T06:35:10.403Z,61.23
2023-02-14T06:37:38.627Z,61.18
2023-02-14T06:40:05.759Z,61.21
2023-02-14T06:42:32.368Z,61.27
2023-02-14T06:44:59.018Z,61.12
2023-02-14T06:47:25.591Z,61.17
2023-02-14T06:49:52.140Z,60.93
2023-02-14T06:52:18.698Z,61.13
2023-02-14T06:54:45.254Z,60.98
2023-02-14T06:57:11.865Z,60.90
2023-02-14T06:59:38.446Z,61.06
2023-02-14T07:02:05.365Z,61.59
2023-02-14T07:04:31.916Z,61.33
2023-02-14T07:06:58.601Z,60.79
2023-02-14T07:09:25.134Z,61.41
2023-02-14T07:11:51.768Z,61.02
2023-02-14T07:14:18.336Z,60.51
2023-02-14T07:16:45.165Z,60.94
2023-02-14T07:19:11.795Z,61.71
2023-02-14T07:21:38.335Z,60.88
2023-02-14T07:24:04.976Z,61.93
2023-02-14T07:26:31.524Z,61.79
2023-02-14T07:28:58.166Z,62.14
2023-02-14T07:31:24.903Z,62.51
2023-02-14T07:33:52.240Z,62.67
2023-02-14T07:36:19.166Z,63.04
2023-02-14T07:38:45.742Z,63.00
2023-02-14T07:41:12.317Z,62.93
2023-02-14T07:43:39.664Z,63.70
2023-02-14T07:46:06.641Z,63.90
2023-02-14T07:48:34.474Z,63.99
2023-02-14T07:51:02.306Z,64.66
2023-02-14T07:53:29.065Z,65.80
2023-02-14T07:55:55.711Z,67.12
2023-02-14T07:58:22.635Z,66.83
2023-02-14T08:00:49.348Z,66.96
2023-02-14T08:03:16.034Z,67.72
2023-02-14T08:05:42.617Z,68.18
2023-02-14T08:08:09.277Z,66.79
2023-02-14T08:10:35.829Z,67.61
2023-02-14T08:13:03.470Z,66.76
2023-02-14T08:15:50.987Z,66.67
2023-02-14T08:18:19.280Z,64.61
2023-02-14T08:20:49.643Z,64.90
2023-02-14T08:23:17.496Z,66.05
2023-02-14T08:25:44.113Z,66.84
2023-02-14T08:28:11.245Z,66.61
2023-02-14T08:30:38.150Z,66.12
2023-02-14T08:33:05.444Z,65.39
2023-02-14T08:35:32.005Z,64.96
2023-02-14T08:37:58.615Z,64.08
2023-02-14T08:40:25.597Z,64.18
2023-02-14T08:42:52.151Z,65.42
2023-02-14T08:45:18.731Z,65.51
2023-02-14T08:47:45.268Z,64.69
2023-02-14T08:50:15.629Z,63.27
2023-02-14T08:52:43.828Z,63.88
2023-02-14T08:55:12.275Z,63.32
2023-02-14T08:57:39.295Z,63.42
2023-02-14T09:00:09.795Z,64.22
2023-02-14T09:02:36.614Z,64.22
2023-02-14T09:05:03.882Z,64.49
2023-02-14T09:07:30.823Z,64.32
2023-02-14T09:09:57.480Z,64.34
2023-02-14T09:12:24.154Z,65.05
2023-02-14T09:14:50.721Z,64.38
2023-02-14T09:17:17.393Z,64.19
2023-02-14T09:19:43.988Z,64.91
2023-02-14T09:22:11.493Z,65.03
2023-02-14T09:24:39.919Z,64.71
2023-02-14T09:27:07.329Z,64.93
2023-02-14T09:29:34.314Z,65.29
2023-02-14T09:32:02.108Z,65.19
2023-02-14T09:34:29.334Z,65.49
2023-02-14T09:37:14.553Z,65.17
2023-02-14T09:39:41.235Z,65.13
2023-02-14T09:42:22.278Z,65.01
2023-02-14T09:45:00.528Z,64.82
2023-02-14T09:47:44.436Z,64.64
2023-02-14T09:50:24.049Z,65.63
2023-02-14T09:52:55.844Z,65.15
2023-02-14T09:55:29.975Z,64.97
2023-02-14T09:58:32.034Z,64.94
2023-02-14T10:01:13.616Z,64.88
2023-02-14T10:04:06.420Z,64.52
2023-02-14T10:06:50.879Z,64.39
2023-02-14T10:09:50.679Z,64.43
2023-02-14T10:12:24.733Z,63.55
2023-02-14T10:14:54.868Z,64.04
2023-02-14T10:17:42.612Z,63.66
2023-02-14T10:20:21.651Z,63.48
2023-02-14T10:22:57.194Z,62.97
2023-02-14T10:25:29.242Z,62.56
2023-02-14T10:27:58.170Z,62.74
2023-02-14T10:30:24.937Z,62.81
2023-02-14T10:33:16.725Z,63.10
2023-02-14T10:35:54.937Z,61.95
2023-02-14T10:38:46.205Z,62.13
2023-02-14T10:41:34.173Z,61.84
2023-02-14T10:44:44.911Z,60.92
2023-02-14T10:47:32.474Z,60.85
2023-02-14T10:50:20.946Z,60.40
2023-02-14T10:52:53.280Z,60.12
2023-02-14T10:55:43.801Z,60.46
2023-02-14T10:58:16.134Z,59.81
2023-02-14T11:00:56.535Z,59.39
2023-02-14T11:03:24.145Z,58.83
2023-02-14T11:05:51.055Z,58.85
2023-02-14T11:08:24.856Z,58.20
2023-02-14T11:10:52.163Z,58.20
2023-02-14T11:13:38.686Z,58.09
2023-02-14T11:16:09.583Z,57.52
2023-02-14T11:18:40.918Z,57.08
2023-02-14T11:21:07.468Z,56.47
2023-02-14T11:23:35.933Z,56.92
2023-02-14T11:26:05.361Z,58.09
2023-02-14T11:28:32.239Z,57.66
2023-02-14T11:30:59.197Z,59.11
2023-02-14T11:33:40.262Z,58.45
2023-02-14T11:36:13.564Z,58.68
2023-02-14T11:38:41.707Z,58.40
2023-02-14T11:41:12.366Z,57.42
2023-02-14T11:43:41.488Z,57.70
2023-02-14T11:46:14.105Z,57.44
2023-02-14T11:49:01.995Z,57.60
2023-02-14T11:51:40.583Z,57.05
2023-02-14T11:54:22.514Z,57.06
2023-02-14T11:56:53.985Z,56.24
2023-02-14T11:59:45.657Z,56.56
2023-02-14T12:02:48.891Z,55.47
2023-02-14T12:05:17.867Z,55.82
2023-02-14T12:07:48.671Z,54.42
2023-02-14T12:10:15.694Z,53.88
2023-02-14T12:13:09.794Z,52.59
2023-02-14T12:15:42.225Z,52.65
2023-02-14T12:18:39.036Z,52.36
2023-02-14T12:21:32.888Z,51.72
2023-02-14T12:24:26.390Z,51.70
2023-02-14T12:27:21.403Z,51.41
2023-02-14T12:30:07.650Z,51.37
2023-02-14T12:32:34.745Z,50.12
2023-02-14T12:35:15.361Z,50.72
2023-02-14T12:38:04.800Z,50.55
2023-02-14T12:40:41.884Z,50.16
2023-02-14T12:43:21.745Z,49.97
2023-02-14T12:46:13.926Z,49.77
2023-02-14T12:49:13.165Z,49.72
2023-02-14T12:51:54.534Z,50.28
2023-02-14T12:55:17.958Z,49.67
2023-02-14T12:58:18.350Z,50.11
2023-02-14T13:00:52.198Z,49.57
2023-02-14T13:03:40.544Z,49.47
2023-02-14T13:06:10.181Z,49.59
2023-02-14T13:09:01.266Z,49.86
2023-02-14T13:11:36.596Z,49.25
2023-02-14T13:14:16.181Z,49.89
2023-02-14T13:16:51.446Z,50.02
2023-02-14T13:19:46.135Z,49.06
2023-02-14T13:22:20.503Z,49.09
2023-02-14T13:24:51.694Z,48.02
2023-02-14T13:27:39.702Z,49.01
2023-02-14T13:30:24.372Z,48.64
2023-02-14T13:32:54.685Z,48.53
2023-02-14T13:35:23.766Z,48.30
2023-02-14T13:37:54.823Z,48.28
2023-02-14T13:40:25.091Z,47.25
2023-02-14T13:42:52.954Z,47.24
2023-02-14T13:45:40.661Z,47.56
2023-02-14T13:48:11.652Z,47.76
2023-02-14T13:50:57.621Z,47.31
2023-02-14T13:53:44.605Z,47.42
2023-02-14T13:56:15.372Z,47.52
2023-02-14T13:58:59.851Z,47.09
2023-02-14T14:01:38.861Z,45.81
2023-02-14T14:04:07.476Z,46.14
2023-02-14T14:07:02.327Z,46.00
2023-02-14T14:09:40.929Z,46.52
2023-02-14T14:12:33.428Z,46.60
2023-02-14T14:15:05.732Z,46.58
2023-02-14T14:17:39.784Z,46.54
2023-02-14T14:20:21.552Z,47.11
2023-02-14T14:22:49.155Z,46.25
2023-02-14T14:25:39.555Z,47.55
2023-02-14T14:28:19.248Z,46.83
2023-02-14T14:30:46.436Z,46.50
2023-02-14T14:33:25.482Z,46.63
2023-02-14T14:35:58.261Z,46.13
2023-02-14T14:38:26.658Z,46.45
2023-02-14T14:40:53.809Z,45.46
2023-02-14T14:43:39.337Z,46.69
2023-02-14T14:46:11.388Z,46.29
2023-02-14T14:48:45.616Z,46.94
2023-02-14T14:51:28.454Z,45.64
2023-02-14T14:54:07.268Z,46.29
2023-02-14T14:56:37.361Z,45.50
2023-02-14T14:59:29.087Z,45.33
2023-02-14T15:01:55.792Z,44.85
2023-02-14T15:04:34.104Z,45.08
2023-02-14T15:07:34.312Z,45.30
2023-02-14T15:10:01.171Z,44.75
2023-02-14T15:12:47.124Z,45.33
2023-02-14T15:15:16.671Z,45.19
2023-02-14T15:17:45.566Z,45.79
2023-02-14T15:20:22.186Z,44.66
2023-02-14T15:22:50.973Z,44.62
2023-02-14T15:25:31.786Z,45.33
2023-02-14T15:27:58.313Z,45.60
2023-02-14T15:30:30.787Z,45.22
2023-02-14T15:32:58.284Z,45.68
2023-02-14T15:35:29.252Z,46.24
2023-02-14T15:37:59.807Z,45.57
2023-02-14T15:40:31.114Z,46.55
2023-02-14T15:43:13.865Z,46.89
2023-02-14T15:45:42.605Z,46.25
2023-02-14T15:48:16.794Z,45.67
2023-02-14T15:50:51.319Z,46.80
2023-02-14T15:53:38.933Z,47.44
2023-02-14T15:56:10.667Z,47.12
2023-02-14T15:58:40.177Z,46.26
2023-02-14T16:01:07.929Z,46.51
2023-02-14T16:03:38.715Z,45.34
2023-02-14T16:06:05.701Z,45.77
2023-02-14T16:08:36.942Z,45.49
2023-02-14T16:11:15.805Z,45.32
2023-02-14T16:13:45.155Z,45.43
2023-02-14T16:16:14.620Z,46.26
2023-02-14T16:18:52.069Z,45.95
2023-02-14T16:21:20.399Z,46.40
2023-02-14T16:24:11.789Z,46.43
2023-02-14T16:26:40.875Z,47.01
2023-02-14T16:29:09.457Z,47.10
2023-02-14T16:31:43.042Z,47.78
2023-02-14T16:34:15.819Z,46.96
2023-02-14T16:36:43.166Z,47.28
2023-02-14T16:39:18.752Z,47.08
2023-02-14T16:41:47.894Z,47.37
2023-02-14T16:44:17.302Z,47.78
2023-02-14T16:46:47.809Z,47.50
2023-02-14T16:49:15.259Z,48.04
2023-02-14T16:51:45.492Z,49.10
2023-02-14T16:54:27.992Z,48.52
2023-02-14T16:56:59.578Z,48.51
2023-02-14T16:59:26.183Z,48.18
2023-02-14T17:01:52.827Z,49.07
2023-02-14T17:04:19.509Z,49.30
2023-02-14T17:06:50.938Z,49.43
2023-02-14T17:09:21.407Z,50.55
2023-02-14T17:11:50.586Z,50.37
2023-02-14T17:14:23.164Z,49.29
2023-02-14T17:16:50.503Z,50.37
2023-02-14T17:19:17.754Z,50.48
2023-02-14T17:21:44.689Z,51.11
2023-02-14T17:24:11.292Z,51.38
2023-02-14T17:26:38.053Z,50.74
2023-02-14T17:29:06.750Z,52.26
2023-02-14T17:31:36.222Z,52.51
2023-02-14T17:34:02.942Z,53.37
2023-02-14T17:36:30.447Z,53.70
2023-02-14T17:38:57.096Z,54.57
2023-02-14T17:41:25.612Z,55.13
2023-02-14T17:43:54.735Z,53.51
2023-02-14T17:46:21.884Z,54.18
2023-02-14T17:48:49.161Z,53.58
2023-02-14T17:51:17.681Z,53.65
2023-02-14T17:53:44.310Z,54.65
2023-02-14T17:56:13.394Z,55.22
2023-02-14T17:58:41.129Z,54.50
2023-02-14T18:01:10.489Z,55.15
2023-02-14T18:03:38.778Z,55.94
2023-02-14T18:06:06.772Z,55.35
2023-02-14T18:08:36.181Z,55.95
2023-02-14T18:11:10.401Z,56.18
2023-02-14T18:13:37.514Z,56.33
2023-02-14T18:16:09.342Z,55.83
2023-02-14T18:18:36.707Z,56.52
2023-02-14T18:21:05.092Z,56.37
2023-02-14T18:23:32.604Z,56.44
2023-02-14T18:26:04.415Z,55.35
2023-02-14T18:28:33.151Z,56.22
2023-02-14T18:31:12.139Z,55.24
2023-02-14T18:33:39.538Z,56.36
2023-02-14T18:36:10.065Z,54.96
2023-02-14T18:38:36.845Z,56.15
2023-02-14T18:41:07.047Z,56.17
2023-02-14T18:43:33.640Z,57.10
2023-02-14T18:46:08.482Z,56.67
2023-02-14T18:48:36.296Z,55.90
2023-02-14T18:51:11.832Z,55.97
2023-02-14T18:53:39.390Z,58.07
2023-02-14T18:56:07.576Z,57.74
2023-02-14T18:58:35.226Z,56.99
2023-02-14T19:01:10.109Z,56.25
2023-02-14T19:03:37.054Z,55.77
2023-02-14T19:06:04.484Z,55.25
2023-02-14T19:08:35.705Z,56.68
2023-02-14T19:11:02.688Z,57.21
2023-02-14T19:13:29.686Z,57.44
2023-02-14T19:15:57.150Z,57.39
2023-02-14T19:18:25.687Z,57.14
2023-02-14T19:20:52.980Z,57.05
2023-02-14T19:23:19.693Z,56.17
2023-02-14T19:25:46.370Z,57.12
2023-02-14T19:28:13.553Z,55.55
2023-02-14T19:30:40.265Z,56.91
2023-02-14T19:33:06.901Z,57.30
2023-02-14T19:35:33.457Z,57.21
2023-02-14T19:38:03.359Z,56.20
2023-02-14T19:40:30.774Z,56.04
2023-02-14T19:42:57.346Z,55.41
2023-02-14T19:45:23.888Z,56.41
2023-02-14T19:47:50.688Z,55.81
2023-02-14T19:50:19.456Z,56.16
2023-02-14T19:52:47.057Z,57.46
2023-02-14T19:55:21.240Z,57.38
2023-02-14T19:57:48.043Z,56.68
2023-02-14T20:00:16.161Z,55.85
2023-02-14T20:02:47.903Z,56.59
2023-02-14T20:05:16.396Z,56.52
2023-02-14T20:07:43.411Z,55.77
2023-02-14T20:10:13.745Z,55.86
2023-02-14T20:12:40.408Z,55.83
2023-02-14T20:15:10.840Z,56.54
2023-02-14T20:17:37.604Z,57.45
2023-02-14T20:20:06.298Z,56.55
2023-02-14T20:22:32.832Z,56.97
2023-02-14T20:24:59.581Z,56.01
2023-02-14T20:27:26.162Z,56.87
2023-02-14T20:29:52.885Z,56.62
2023-02-14T20:32:19.506Z,57.22
2023-02-14T20:34:46.093Z,57.00
2023-02-14T20:37:12.737Z,56.36
2023-02-14T20:39:39.303Z,57.32
2023-02-14T20:42:05.987Z,57.13
2023-02-14T20:44:32.609Z,56.42
2023-02-14T20:46:59.285Z,57.60
2023-02-14T20:49:27.594Z,56.75
2023-02-14T20:51:55.961Z,56.66
2023-02-14T20:54:24.753Z,57.27
2023-02-14T20:56:51.673Z,57.94
2023-02-14T20:59:27.221Z,57.69
2023-02-14T21:01:58.291Z,57.45
2023-02-14T21:04:25.475Z,56.89
2023-02-14T21:06:52.071Z,57.27
2023-02-14T21:09:20.636Z,56.90
2023-02-14T21:11:47.247Z,57.95
2023-02-14T21:14:13.851Z,58.52
2023-02-14T21:16:40.396Z,58.88
2023-02-14T21:19:07.028Z,58.84
2023-02-14T21:21:37.153Z,57.61
2023-02-14T21:24:07.149Z,57.29
2023-02-14T21:26:33.908Z,57.01
2023-02-14T21:29:01.527Z,57.19
2023-02-14T21:31:28.290Z,57.49
2023-02-14T21:33:57.493Z,57.64
2023-02-14T21:36:27.895Z,57.54
2023-02-14T21:38:58.137Z,58.05
2023-02-14T21:41:27.665Z,57.87
2023-02-14T21:43:58.444Z,57.41
2023-02-14T21:46:30.439Z,57.70
2023-02-14T21:49:17.005Z,58.95
2023-02-14T21:51:43.784Z,58.14
2023-02-14T21:54:10.548Z,57.60
2023-02-14T21:56:38.887Z,57.04
2023-02-14T21:59:06.027Z,58.32
2023-02-14T22:01:34.711Z,62.18
2023-02-14T22:04:02.769Z,62.54
2023-02-14T22:06:29.382Z,61.52
2023-02-14T22:08:58.026Z,60.20
2023-02-14T22:11:26.907Z,59.28
2023-02-14T22:13:53.505Z,59.92
2023-02-14T22:16:22.082Z,59.84
2023-02-14T22:18:48.727Z,60.00
2023-02-14T22:21:19.019Z,61.57
2023-02-14T22:23:45.668Z,61.93
2023-02-14T22:26:18.348Z,62.13
2023-02-14T22:28:47.869Z,61.83
2023-02-14T22:31:16.256Z,61.14
2023-02-14T22:33:43.543Z,60.78
2023-02-14T22:36:11.083Z,61.30
2023-02-14T22:38:38.907Z,60.85
2023-02-14T22:41:10.926Z,59.99
2023-02-14T22:43:38.709Z,59.64
2023-02-14T22:46:08.301Z,59.91
2023-02-14T22:48:36.652Z,60.38
2023-02-14T22:51:24.297Z,60.93
2023-02-14T22:53:53.531Z,59.61
2023-02-14T22:56:27.011Z,59.42
2023-02-14T22:59:02.349Z,59.80
2023-02-14T23:01:29.416Z,60.15
2023-02-14T23:03:58.640Z,60.00
2023-02-14T23:06:27.110Z,59.84
2023-02-14T23:08:54.695Z,59.79
2023-02-14T23:11:29.612Z,59.45
2023-02-14T23:14:14.936Z,59.75
2023-02-14T23:17:00.857Z,59.28
2023-02-14T23:19:49.598Z,58.74
2023-02-14T23:22:22.861Z,58.39
2023-02-14T23:24:51.361Z,59.96
2023-02-14T23:27:20.920Z,60.02
2023-02-14T23:29:47.558Z,58.59
2023-02-14T23:32:14.372Z,59.58
2023-02-14T23:34:43.801Z,59.26
2023-02-14T23:37:11.483Z,60.14
2023-02-14T23:39:38.146Z,61.29
2023-02-14T23:42:06.215Z,59.45
2023-02-14T23:44:33.608Z,59.04
2023-02-14T23:47:04.261Z,60.64
2023-02-14T23:49:32.701Z,60.95
2023-02-14T23:52:00.194Z,59.82
2023-02-14T23:54:26.853Z,59.23
2023-02-14T23:56:53.908Z,59.12
2023-02-14T23:59:21.852Z,59.59
